Terminal Aerodrome Forecast
Issued by NWS

Home | Current Version | Previous Version | Text Only | Print | Product List | Glossary On
Versions: 1 2 3 4 5 6 7 8 9 10 11 12 13 14 15 16 17 18 19 20 21
000
FTUS45 KBOU 292330
TAFBJC
TAF
KBJC 292330Z 3000/3024 33012KT P6SM VCTS SCT080CB BKN120
     FM300100 30008KT P6SM FEW080 SCT140 BKN220
     FM300900 26006KT P6SM FEW140
     FM301200 VRB05KT P6SM FEW140
     FM301900 11007KT P6SM SCT080 BKN110 PROB30 3020/3024 VRB20G35KT
      -TSRA BKN080CB=

USA.gov is the U.S. government's official web portal to all federal, state and local government web resources and services.